< Cyclone 200401 2004 Season Cyclone 200403 >
Cyclone 200402 (DEBBIE)
General InformationDetailed Track InformationTrack Information on Google MapsList of All Images || ResourceGoogle EarthGE AnimationAtom FeedGeoJSON
Detalied Best Track Wind (Time Zone = UTC)
Year Month Day Hour Lat. Long. Wind (kt) Gust (kt) Direc. of Major Storm Axis Radius of Major Storm Axis (nm) Radius of Minor Storm Axis (nm) Direc. of Major Gale Axis Radius of Major Gale Axis (nm) Radius of Minor Gale Axis (nm) Image
2003 12 16 00 -9.9 140.4 15 -1 symmetric - - symmetric - - Image
2003 12 16 03 -9.9 139.8 15 -1 symmetric - - symmetric - - Image
2003 12 16 06 -9.9 139.4 15 -1 symmetric - - symmetric - - Image
2003 12 16 09 -9.9 139.0 15 -1 symmetric - - symmetric - - Image
2003 12 16 12 -9.8 138.6 15 -1 symmetric - - symmetric - - Image
2003 12 16 15 -9.7 138.2 15 -1 symmetric - - symmetric - - Image
2003 12 16 18 -9.6 138.0 20 -1 symmetric - - symmetric - - Image
2003 12 16 21 -9.5 137.8 20 -1 symmetric - - symmetric - - Image
2003 12 17 00 -9.3 137.4 25 -1 symmetric - - symmetric - - Image
2003 12 17 03 -9.2 137.1 25 -1 symmetric - - symmetric - - Image
2003 12 17 06 -9.2 136.6 25 -1 symmetric - - symmetric - - Image
2003 12 17 09 -9.2 136.2 30 -1 symmetric - - symmetric - - Image
2003 12 17 12 -9.2 136.0 30 -1 symmetric - - symmetric - - Image
2003 12 17 15 -9.3 135.7 30 -1 symmetric - - symmetric - - Image
2003 12 17 18 -9.4 135.6 30 -1 symmetric - - symmetric - - Image
2003 12 17 21 -9.5 135.6 30 -1 symmetric - - symmetric - - Image
2003 12 18 00 -9.5 135.6 30 -1 symmetric - - symmetric - - Image
2003 12 18 03 -9.6 135.6 30 -1 symmetric - - symmetric - - Image
2003 12 18 06 -9.6 135.6 30 -1 symmetric - - symmetric - - Image
2003 12 18 09 -9.7 135.5 30 -1 symmetric - - symmetric - - Image
2003 12 18 12 -9.7 135.5 30 -1 symmetric - - symmetric - - Image
2003 12 18 15 -9.7 135.5 35 -1 symmetric - - symmetric - - Image
2003 12 18 18 -9.7 135.4 40 -1 symmetric - - symmetric - - Image
2003 12 18 21 -9.7 135.3 50 -1 symmetric - - symmetric - - Image
2003 12 19 00 -9.8 135.1 50 -1 symmetric - - symmetric - - Image
2003 12 19 03 -9.9 134.9 55 -1 symmetric - - symmetric - - Image
2003 12 19 06 -9.9 134.8 55 -1 symmetric - - symmetric - - Image
2003 12 19 09 -9.9 134.7 55 -1 symmetric - - symmetric - - Image
2003 12 19 12 -10.1 134.5 60 -1 symmetric - - symmetric - - Image
2003 12 19 15 -10.3 134.4 65 -1 symmetric - - symmetric - - Image
2003 12 19 18 -10.5 134.3 65 -1 symmetric - - symmetric - - Image
2003 12 19 21 -10.8 134.1 65 -1 symmetric - - symmetric - - Image
2003 12 20 00 -10.9 134.0 65 -1 symmetric - - symmetric - - Image
2003 12 20 03 -11.1 133.9 65 -1 symmetric - - symmetric - - Image
2003 12 20 06 -11.3 133.8 65 -1 symmetric - - symmetric - - Image
2003 12 20 09 -11.5 133.7 60 -1 symmetric - - symmetric - - Image
2003 12 20 12 -11.7 133.6 60 -1 symmetric - - symmetric - - Image
2003 12 20 15 -12.1 133.4 50 -1 symmetric - - symmetric - - Image
2003 12 20 18 -12.4 133.4 40 -1 symmetric - - symmetric - - Image
2003 12 20 21 -12.7 133.5 35 -1 symmetric - - symmetric - - Image
2003 12 21 00 -13.0 133.8 30 -1 symmetric - - symmetric - - Image
2003 12 21 03 -13.3 133.9 20 -1 symmetric - - symmetric - - Image
2003 12 21 06 -13.5 133.6 20 -1 symmetric - - symmetric - - Image
2003 12 21 09 -13.9 133.3 20 -1 symmetric - - symmetric - - Image
2003 12 21 12 -13.9 133.0 20 -1 symmetric - - symmetric - - Image
2003 12 21 15 -13.9 132.8 20 -1 symmetric - - symmetric - - Image
2003 12 21 18 -13.9 132.8 20 -1 symmetric - - symmetric - - Image
2003 12 21 21 -13.9 132.8 15 -1 symmetric - - symmetric - - Image
2003 12 22 00 -14.0 132.6 15 -1 symmetric - - symmetric - - Image
2003 12 22 03 -14.1 132.5 15 -1 symmetric - - symmetric - - Image
2003 12 22 06 -14.2 132.4 15 -1 symmetric - - symmetric - - Image
2003 12 22 09 -14.4 132.3 15 -1 symmetric - - symmetric - - Image
2003 12 22 12 -14.7 132.0 15 -1 symmetric - - symmetric - - Image
2003 12 22 15 -14.9 131.7 15 -1 symmetric - - symmetric - - Image
2003 12 22 18 -15.1 131.3 15 -1 symmetric - - symmetric - - Image
2003 12 22 21 -15.3 131.0 15 -1 symmetric - - symmetric - - Image
2003 12 23 00 -15.4 130.5 15 -1 symmetric - - symmetric - - Image
< Cyclone 200401 2004 Season Cyclone 200403 >

Help